sensor_id;sensor_type;location;lat;lon;timestamp;P1;durP1;ratioP1;P2;durP2;ratioP2
13173;SDS011;6652;48.802;9.190;2024-01-15T00:02:25;31.35;;;11.40;;
13173;SDS011;6652;48.802;9.190;2024-01-15T00:04:51;36.63;;;11.90;;
13173;SDS011;6652;48.802;9.190;2024-01-15T00:07:20;35.38;;;12.07;;
13173;SDS011;6652;48.802;9.190;2024-01-15T00:09:46;29.92;;;11.43;;
13173;SDS011;6652;48.802;9.190;2024-01-15T00:12:13;29.50;;;11.60;;
13173;SDS011;6652;48.802;9.190;2024-01-15T00:14:40;27.05;;;11.05;;
13173;SDS011;6652;48.802;9.190;2024-01-15T00:17:07;31.35;;;11.00;;
13173;SDS011;6652;48.802;9.190;2024-01-15T00:19:34;34.20;;;11.30;;
13173;SDS011;6652;48.802;9.190;2024-01-15T00:22:01;35.85;;;12.07;;
13173;SDS011;6652;48.802;9.190;2024-01-15T00:24:29;28.40;;;11.20;;
13173;SDS011;6652;48.802;9.190;2024-01-15T00:26:55;40.97;;;14.35;;
13173;SDS011;6652;48.802;9.190;2024-01-15T00:29:22;36.08;;;13.05;;
13173;SDS011;6652;48.802;9.190;2024-01-15T00:31:49;32.50;;;12.00;;
13173;SDS011;6652;48.802;9.190;2024-01-15T00:34:16;36.20;;;12.63;;
13173;SDS011;6652;48.802;9.190;2024-01-15T00:36:43;33.10;;;11.25;;
13173;SDS011;6652;48.802;9.190;2024-01-15T00:39:10;29.23;;;10.60;;
13173;SDS011;6652;48.802;9.190;2024-01-15T00:41:38;28.83;;;11.25;;
13173;SDS011;6652;48.802;9.190;2024-01-15T00:44:05;34.38;;;12.88;;
13173;SDS011;6652;48.802;9.190;2024-01-15T00:46:32;33.20;;;12.02;;
13173;SDS011;6652;48.802;9.190;2024-01-15T00:48:59;33.95;;;11.70;;
13173;SDS011;6652;48.802;9.190;2024-01-15T00:51:26;34.85;;;12.07;;
13173;SDS011;6652;48.802;9.190;2024-01-15T00:53:53;27.65;;;11.30;;
13173;SDS011;6652;48.802;9.190;2024-01-15T00:56:19;25.73;;;10.73;;
13173;SDS011;6652;48.802;9.190;2024-01-15T00:58:48;34.35;;;12.85;;
13173;SDS011;6652;48.802;9.190;2024-01-15T01:01:15;32.33;;;11.80;;
13173;SDS011;6652;48.802;9.190;2024-01-15T01:03:42;32.38;;;12.93;;
13173;SDS011;6652;48.802;9.190;2024-01-15T01:06:08;31.73;;;11.45;;
13173;SDS011;6652;48.802;9.190;2024-01-15T01:08:35;29.27;;;11.15;;
13173;SDS011;6652;48.802;9.190;2024-01-15T01:11:02;30.63;;;11.48;;
13173;SDS011;6652;48.802;9.190;2024-01-15T01:13:29;31.85;;;11.18;;
13173;SDS011;6652;48.802;9.190;2024-01-15T01:15:59;31.30;;;11.13;;
13173;SDS011;6652;48.802;9.190;2024-01-15T01:18:26;32.50;;;11.18;;
13173;SDS011;6652;48.802;9.190;2024-01-15T01:20:53;27.85;;;11.18;;
13173;SDS011;6652;48.802;9.190;2024-01-15T01:23:20;28.98;;;11.13;;
13173;SDS011;6652;48.802;9.190;2024-01-15T01:25:48;29.88;;;10.85;;
13173;SDS011;6652;48.802;9.190;2024-01-15T01:28:15;37.33;;;11.00;;
13173;SDS011;6652;48.802;9.190;2024-01-15T01:30:42;27.50;;;9.80;;
13173;SDS011;6652;48.802;9.190;2024-01-15T01:33:10;28.35;;;10.57;;
13173;SDS011;6652;48.802;9.190;2024-01-15T01:35:37;29.33;;;10.65;;
13173;SDS011;6652;48.802;9.190;2024-01-15T01:38:03;30.48;;;11.45;;
13173;SDS011;6652;48.802;9.190;2024-01-15T01:40:30;25.65;;;9.93;;
13173;SDS011;6652;48.802;9.190;2024-01-15T01:42:57;25.05;;;10.35;;
13173;SDS011;6652;48.802;9.190;2024-01-15T01:45:24;25.50;;;10.32;;
13173;SDS011;6652;48.802;9.190;2024-01-15T01:47:51;30.05;;;10.77;;
13173;SDS011;6652;48.802;9.190;2024-01-15T01:50:19;27.75;;;10.32;;
13173;SDS011;6652;48.802;9.190;2024-01-15T01:52:46;28.67;;;11.13;;
13173;SDS011;6652;48.802;9.190;2024-01-15T01:55:13;32.30;;;11.13;;
13173;SDS011;6652;48.802;9.190;2024-01-15T01:57:40;28.15;;;9.70;;
13173;SDS011;6652;48.802;9.190;2024-01-15T02:00:09;28.50;;;10.82;;
13173;SDS011;6652;48.802;9.190;2024-01-15T02:02:36;27.00;;;9.98;;
13173;SDS011;6652;48.802;9.190;2024-01-15T02:05:04;25.73;;;9.60;;
13173;SDS011;6652;48.802;9.190;2024-01-15T02:07:34;31.35;;;10.30;;
13173;SDS011;6652;48.802;9.190;2024-01-15T02:10:01;28.33;;;10.07;;
13173;SDS011;6652;48.802;9.190;2024-01-15T02:12:29;27.20;;;10.15;;
13173;SDS011;6652;48.802;9.190;2024-01-15T02:14:55;26.83;;;10.10;;
13173;SDS011;6652;48.802;9.190;2024-01-15T02:17:22;28.35;;;10.65;;
13173;SDS011;6652;48.802;9.190;2024-01-15T02:19:49;23.92;;;10.55;;
13173;SDS011;6652;48.802;9.190;2024-01-15T02:22:16;27.10;;;10.20;;
13173;SDS011;6652;48.802;9.190;2024-01-15T02:24:44;27.05;;;11.23;;
13173;SDS011;6652;48.802;9.190;2024-01-15T02:27:11;32.00;;;10.77;;
13173;SDS011;6652;48.802;9.190;2024-01-15T02:29:38;27.77;;;10.07;;
13173;SDS011;6652;48.802;9.190;2024-01-15T02:32:05;24.20;;;9.60;;
13173;SDS011;6652;48.802;9.190;2024-01-15T02:34:32;34.05;;;11.50;;
13173;SDS011;6652;48.802;9.190;2024-01-15T02:36:59;29.38;;;9.98;;
13173;SDS011;6652;48.802;9.190;2024-01-15T02:39:26;30.95;;;10.18;;
13173;SDS011;6652;48.802;9.190;2024-01-15T02:41:55;29.05;;;11.15;;
13173;SDS011;6652;48.802;9.190;2024-01-15T02:44:22;31.85;;;11.13;;
13173;SDS011;6652;48.802;9.190;2024-01-15T02:46:49;31.20;;;11.20;;
13173;SDS011;6652;48.802;9.190;2024-01-15T02:49:16;30.55;;;11.25;;
13173;SDS011;6652;48.802;9.190;2024-01-15T02:51:43;30.42;;;10.90;;
13173;SDS011;6652;48.802;9.190;2024-01-15T02:54:10;29.88;;;10.68;;
13173;SDS011;6652;48.802;9.190;2024-01-15T02:56:37;30.92;;;11.30;;
13173;SDS011;6652;48.802;9.190;2024-01-15T02:59:05;31.70;;;11.05;;
13173;SDS011;6652;48.802;9.190;2024-01-15T03:01:32;27.67;;;10.77;;
13173;SDS011;6652;48.802;9.190;2024-01-15T03:03:58;31.15;;;9.98;;
13173;SDS011;6652;48.802;9.190;2024-01-15T03:06:25;26.90;;;9.88;;
13173;SDS011;6652;48.802;9.190;2024-01-15T03:08:52;30.15;;;10.77;;
13173;SDS011;6652;48.802;9.190;2024-01-15T03:11:19;28.38;;;10.13;;
13173;SDS011;6652;48.802;9.190;2024-01-15T03:13:46;29.23;;;10.75;;
13173;SDS011;6652;48.802;9.190;2024-01-15T03:16:14;30.70;;;10.98;;
13173;SDS011;6652;48.802;9.190;2024-01-15T03:18:40;30.10;;;10.85;;
13173;SDS011;6652;48.802;9.190;2024-01-15T03:21:07;26.08;;;9.32;;
13173;SDS011;6652;48.802;9.190;2024-01-15T03:23:34;31.52;;;10.05;;
13173;SDS011;6652;48.802;9.190;2024-01-15T03:26:01;28.05;;;10.45;;
13173;SDS011;6652;48.802;9.190;2024-01-15T03:28:28;26.63;;;10.32;;
13173;SDS011;6652;48.802;9.190;2024-01-15T03:30:55;25.27;;;10.13;;
13173;SDS011;6652;48.802;9.190;2024-01-15T03:33:23;26.42;;;10.07;;
13173;SDS011;6652;48.802;9.190;2024-01-15T03:35:50;27.23;;;10.88;;
13173;SDS011;6652;48.802;9.190;2024-01-15T03:38:17;31.88;;;10.25;;
13173;SDS011;6652;48.802;9.190;2024-01-15T03:40:43;27.83;;;9.65;;
13173;SDS011;6652;48.802;9.190;2024-01-15T03:43:11;25.70;;;10.30;;
13173;SDS011;6652;48.802;9.190;2024-01-15T03:45:38;25.35;;;10.10;;
13173;SDS011;6652;48.802;9.190;2024-01-15T03:48:05;26.83;;;9.75;;
13173;SDS011;6652;48.802;9.190;2024-01-15T03:50:33;28.83;;;9.95;;
13173;SDS011;6652;48.802;9.190;2024-01-15T03:53:00;26.58;;;9.18;;
13173;SDS011;6652;48.802;9.190;2024-01-15T03:55:27;28.38;;;10.35;;
13173;SDS011;6652;48.802;9.190;2024-01-15T03:57:54;25.77;;;9.82;;
13173;SDS011;6652;48.802;9.190;2024-01-15T04:00:22;25.80;;;9.90;;
13173;SDS011;6652;48.802;9.190;2024-01-15T04:02:48;28.45;;;10.30;;
13173;SDS011;6652;48.802;9.190;2024-01-15T04:05:15;24.70;;;9.25;;
13173;SDS011;6652;48.802;9.190;2024-01-15T04:07:43;27.90;;;9.77;;
13173;SDS011;6652;48.802;9.190;2024-01-15T04:10:10;22.85;;;8.45;;
13173;SDS011;6652;48.802;9.190;2024-01-15T04:12:37;20.50;;;8.18;;
13173;SDS011;6652;48.802;9.190;2024-01-15T04:15:04;21.77;;;8.35;;
13173;SDS011;6652;48.802;9.190;2024-01-15T04:17:31;22.02;;;8.60;;
13173;SDS011;6652;48.802;9.190;2024-01-15T04:19:58;26.42;;;8.32;;
13173;SDS011;6652;48.802;9.190;2024-01-15T04:22:25;25.55;;;6.90;;
13173;SDS011;6652;48.802;9.190;2024-01-15T04:24:54;31.88;;;7.78;;
13173;SDS011;6652;48.802;9.190;2024-01-15T04:27:24;20.20;;;7.82;;
13173;SDS011;6652;48.802;9.190;2024-01-15T04:29:51;20.52;;;7.18;;
13173;SDS011;6652;48.802;9.190;2024-01-15T04:32:18;27.05;;;8.00;;
13173;SDS011;6652;48.802;9.190;2024-01-15T04:34:44;19.98;;;7.38;;
13173;SDS011;6652;48.802;9.190;2024-01-15T04:37:12;25.42;;;8.35;;
13173;SDS011;6652;48.802;9.190;2024-01-15T04:39:39;20.45;;;7.00;;
13173;SDS011;6652;48.802;9.190;2024-01-15T04:42:07;23.70;;;8.40;;
13173;SDS011;6652;48.802;9.190;2024-01-15T04:44:34;22.15;;;8.05;;
13173;SDS011;6652;48.802;9.190;2024-01-15T04:47:01;22.58;;;8.52;;
13173;SDS011;6652;48.802;9.190;2024-01-15T04:49:28;23.02;;;8.32;;
13173;SDS011;6652;48.802;9.190;2024-01-15T04:51:55;24.13;;;8.40;;
13173;SDS011;6652;48.802;9.190;2024-01-15T04:54:22;21.92;;;8.27;;
13173;SDS011;6652;48.802;9.190;2024-01-15T04:56:48;19.25;;;8.20;;
13173;SDS011;6652;48.802;9.190;2024-01-15T04:59:17;25.73;;;9.32;;
13173;SDS011;6652;48.802;9.190;2024-01-15T05:01:43;23.35;;;9.32;;
13173;SDS011;6652;48.802;9.190;2024-01-15T05:04:10;22.27;;;8.27;;
13173;SDS011;6652;48.802;9.190;2024-01-15T05:06:37;24.15;;;9.30;;
13173;SDS011;6652;48.802;9.190;2024-01-15T05:09:04;24.05;;;8.23;;
13173;SDS011;6652;48.802;9.190;2024-01-15T05:11:30;29.42;;;10.10;;
13173;SDS011;6652;48.802;9.190;2024-01-15T05:13:57;24.77;;;9.32;;
13173;SDS011;6652;48.802;9.190;2024-01-15T05:16:25;23.40;;;9.15;;
13173;SDS011;6652;48.802;9.190;2024-01-15T05:18:52;26.08;;;9.05;;
13173;SDS011;6652;48.802;9.190;2024-01-15T05:21:19;20.73;;;8.65;;
13173;SDS011;6652;48.802;9.190;2024-01-15T05:23:46;23.52;;;9.30;;
13173;SDS011;6652;48.802;9.190;2024-01-15T05:26:12;20.33;;;8.02;;
13173;SDS011;6652;48.802;9.190;2024-01-15T05:28:40;23.80;;;8.57;;
13173;SDS011;6652;48.802;9.190;2024-01-15T05:31:07;23.83;;;8.60;;
13173;SDS011;6652;48.802;9.190;2024-01-15T05:33:35;37.22;;;13.07;;
13173;SDS011;6652;48.802;9.190;2024-01-15T05:36:03;18.27;;;7.93;;
13173;SDS011;6652;48.802;9.190;2024-01-15T05:38:30;23.45;;;8.73;;
13173;SDS011;6652;48.802;9.190;2024-01-15T05:40:57;21.08;;;8.00;;
13173;SDS011;6652;48.802;9.190;2024-01-15T05:46:11;19.85;;;7.95;;
13173;SDS011;6652;48.802;9.190;2024-01-15T05:48:39;21.58;;;8.43;;
13173;SDS011;6652;48.802;9.190;2024-01-15T05:51:06;19.75;;;7.93;;
13173;SDS011;6652;48.802;9.190;2024-01-15T05:53:32;24.63;;;8.48;;
13173;SDS011;6652;48.802;9.190;2024-01-15T05:55:59;18.92;;;7.88;;
13173;SDS011;6652;48.802;9.190;2024-01-15T05:58:27;22.15;;;7.45;;
13173;SDS011;6652;48.802;9.190;2024-01-15T06:00:53;21.30;;;8.38;;
13173;SDS011;6652;48.802;9.190;2024-01-15T06:03:20;19.90;;;8.77;;
13173;SDS011;6652;48.802;9.190;2024-01-15T06:05:48;20.52;;;7.70;;
13173;SDS011;6652;48.802;9.190;2024-01-15T06:08:15;23.73;;;8.98;;
13173;SDS011;6652;48.802;9.190;2024-01-15T06:10:42;18.15;;;7.95;;
13173;SDS011;6652;48.802;9.190;2024-01-15T06:13:09;20.42;;;8.35;;
13173;SDS011;6652;48.802;9.190;2024-01-15T06:15:36;23.30;;;9.50;;
13173;SDS011;6652;48.802;9.190;2024-01-15T06:18:03;25.10;;;9.00;;
13173;SDS011;6652;48.802;9.190;2024-01-15T06:20:30;24.23;;;8.77;;
13173;SDS011;6652;48.802;9.190;2024-01-15T06:22:58;22.83;;;8.63;;
13173;SDS011;6652;48.802;9.190;2024-01-15T06:25:25;26.08;;;7.97;;
13173;SDS011;6652;48.802;9.190;2024-01-15T06:27:52;20.42;;;8.32;;
13173;SDS011;6652;48.802;9.190;2024-01-15T06:30:18;23.33;;;8.82;;
13173;SDS011;6652;48.802;9.190;2024-01-15T06:32:45;27.02;;;10.35;;
13173;SDS011;6652;48.802;9.190;2024-01-15T06:35:12;21.35;;;8.40;;
13173;SDS011;6652;48.802;9.190;2024-01-15T06:37:39;23.02;;;8.45;;
13173;SDS011;6652;48.802;9.190;2024-01-15T06:40:08;22.48;;;8.70;;
13173;SDS011;6652;48.802;9.190;2024-01-15T06:42:35;19.88;;;9.63;;
13173;SDS011;6652;48.802;9.190;2024-01-15T06:45:02;27.17;;;8.60;;
13173;SDS011;6652;48.802;9.190;2024-01-15T06:47:29;19.02;;;8.25;;
13173;SDS011;6652;48.802;9.190;2024-01-15T06:49:57;19.33;;;8.30;;
13173;SDS011;6652;48.802;9.190;2024-01-15T06:52:24;19.63;;;8.55;;
13173;SDS011;6652;48.802;9.190;2024-01-15T06:54:51;21.65;;;7.97;;
13173;SDS011;6652;48.802;9.190;2024-01-15T06:57:19;19.35;;;8.68;;
13173;SDS011;6652;48.802;9.190;2024-01-15T06:59:46;25.55;;;8.88;;
13173;SDS011;6652;48.802;9.190;2024-01-15T07:02:13;18.20;;;8.02;;
13173;SDS011;6652;48.802;9.190;2024-01-15T07:04:39;17.00;;;7.63;;
13173;SDS011;6652;48.802;9.190;2024-01-15T07:07:06;21.02;;;8.32;;
13173;SDS011;6652;48.802;9.190;2024-01-15T07:09:33;19.38;;;8.43;;
13173;SDS011;6652;48.802;9.190;2024-01-15T07:12:00;20.67;;;7.88;;
13173;SDS011;6652;48.802;9.190;2024-01-15T07:14:28;20.67;;;7.97;;
13173;SDS011;6652;48.802;9.190;2024-01-15T07:16:55;15.35;;;7.03;;
13173;SDS011;6652;48.802;9.190;2024-01-15T07:19:22;19.85;;;8.70;;
13173;SDS011;6652;48.802;9.190;2024-01-15T07:21:49;23.08;;;7.55;;
13173;SDS011;6652;48.802;9.190;2024-01-15T07:24:15;17.13;;;7.05;;
13173;SDS011;6652;48.802;9.190;2024-01-15T07:26:42;16.30;;;7.43;;
13173;SDS011;6652;48.802;9.190;2024-01-15T07:29:09;18.27;;;7.35;;
13173;SDS011;6652;48.802;9.190;2024-01-15T07:31:37;15.00;;;6.97;;
13173;SDS011;6652;48.802;9.190;2024-01-15T07:34:04;17.73;;;7.38;;
13173;SDS011;6652;48.802;9.190;2024-01-15T07:36:31;20.08;;;7.55;;
13173;SDS011;6652;48.802;9.190;2024-01-15T07:38:58;15.20;;;7.10;;
13173;SDS011;6652;48.802;9.190;2024-01-15T07:41:25;18.17;;;7.32;;
13173;SDS011;6652;48.802;9.190;2024-01-15T07:43:52;16.70;;;6.82;;
13173;SDS011;6652;48.802;9.190;2024-01-15T07:46:19;16.73;;;6.28;;
13173;SDS011;6652;48.802;9.190;2024-01-15T07:48:47;18.17;;;7.55;;
13173;SDS011;6652;48.802;9.190;2024-01-15T07:51:16;16.52;;;7.65;;
13173;SDS011;6652;48.802;9.190;2024-01-15T07:53:43;16.05;;;7.03;;
13173;SDS011;6652;48.802;9.190;2024-01-15T07:56:10;18.85;;;7.45;;
13173;SDS011;6652;48.802;9.190;2024-01-15T07:58:36;14.27;;;6.68;;
13173;SDS011;6652;48.802;9.190;2024-01-15T08:01:03;19.23;;;7.68;;
13173;SDS011;6652;48.802;9.190;2024-01-15T08:03:31;23.52;;;7.28;;
13173;SDS011;6652;48.802;9.190;2024-01-15T08:05:59;16.83;;;7.65;;
13173;SDS011;6652;48.802;9.190;2024-01-15T08:08:26;21.60;;;7.97;;
13173;SDS011;6652;48.802;9.190;2024-01-15T08:10:52;15.32;;;7.13;;
13173;SDS011;6652;48.802;9.190;2024-01-15T08:13:19;18.33;;;7.68;;
13173;SDS011;6652;48.802;9.190;2024-01-15T08:15:46;18.35;;;6.88;;
13173;SDS011;6652;48.802;9.190;2024-01-15T08:18:13;15.80;;;7.18;;
13173;SDS011;6652;48.802;9.190;2024-01-15T08:20:40;15.73;;;7.07;;
13173;SDS011;6652;48.802;9.190;2024-01-15T08:23:08;22.65;;;7.20;;
13173;SDS011;6652;48.802;9.190;2024-01-15T08:25:35;20.52;;;8.18;;
13173;SDS011;6652;48.802;9.190;2024-01-15T08:28:01;20.20;;;8.13;;
13173;SDS011;6652;48.802;9.190;2024-01-15T08:30:28;21.88;;;8.13;;
13173;SDS011;6652;48.802;9.190;2024-01-15T08:32:55;18.60;;;7.55;;
13173;SDS011;6652;48.802;9.190;2024-01-15T08:35:24;15.20;;;8.05;;
13173;SDS011;6652;48.802;9.190;2024-01-15T08:37:51;22.52;;;7.65;;
13173;SDS011;6652;48.802;9.190;2024-01-15T08:40:20;19.88;;;8.73;;
13173;SDS011;6652;48.802;9.190;2024-01-15T08:42:47;16.67;;;7.55;;
13173;SDS011;6652;48.802;9.190;2024-01-15T08:45:15;20.38;;;7.30;;
13173;SDS011;6652;48.802;9.190;2024-01-15T08:47:42;21.88;;;7.10;;
13173;SDS011;6652;48.802;9.190;2024-01-15T08:50:08;21.55;;;8.18;;
13173;SDS011;6652;48.802;9.190;2024-01-15T08:52:35;16.95;;;6.70;;
13173;SDS011;6652;48.802;9.190;2024-01-15T08:55:02;15.38;;;6.63;;
13173;SDS011;6652;48.802;9.190;2024-01-15T08:57:33;13.85;;;6.13;;
13173;SDS011;6652;48.802;9.190;2024-01-15T09:00:00;14.10;;;5.70;;
13173;SDS011;6652;48.802;9.190;2024-01-15T09:02:27;14.40;;;6.00;;
13173;SDS011;6652;48.802;9.190;2024-01-15T09:04:54;19.00;;;5.65;;
13173;SDS011;6652;48.802;9.190;2024-01-15T09:07:21;12.57;;;4.95;;
13173;SDS011;6652;48.802;9.190;2024-01-15T09:09:47;13.20;;;5.80;;
13173;SDS011;6652;48.802;9.190;2024-01-15T09:12:14;18.02;;;5.68;;
13173;SDS011;6652;48.802;9.190;2024-01-15T09:14:44;12.27;;;5.57;;
13173;SDS011;6652;48.802;9.190;2024-01-15T09:17:11;13.10;;;5.28;;
13173;SDS011;6652;48.802;9.190;2024-01-15T09:19:38;15.70;;;6.38;;
13173;SDS011;6652;48.802;9.190;2024-01-15T09:22:05;12.68;;;4.97;;
13173;SDS011;6652;48.802;9.190;2024-01-15T09:24:32;15.30;;;5.57;;
13173;SDS011;6652;48.802;9.190;2024-01-15T09:26:59;16.00;;;7.03;;
13173;SDS011;6652;48.802;9.190;2024-01-15T09:29:26;12.68;;;5.05;;
13173;SDS011;6652;48.802;9.190;2024-01-15T09:31:54;19.38;;;6.07;;
13173;SDS011;6652;48.802;9.190;2024-01-15T09:34:21;11.75;;;5.25;;
13173;SDS011;6652;48.802;9.190;2024-01-15T09:36:48;17.33;;;5.45;;
13173;SDS011;6652;48.802;9.190;2024-01-15T09:39:14;13.70;;;5.10;;
13173;SDS011;6652;48.802;9.190;2024-01-15T09:41:41;10.68;;;5.15;;
13173;SDS011;6652;48.802;9.190;2024-01-15T09:44:09;12.05;;;4.82;;
13173;SDS011;6652;48.802;9.190;2024-01-15T09:46:38;13.10;;;5.38;;
13173;SDS011;6652;48.802;9.190;2024-01-15T09:49:07;12.20;;;5.28;;
13173;SDS011;6652;48.802;9.190;2024-01-15T09:51:34;12.35;;;5.40;;
13173;SDS011;6652;48.802;9.190;2024-01-15T09:54:02;17.83;;;4.88;;
13173;SDS011;6652;48.802;9.190;2024-01-15T09:56:30;11.80;;;4.18;;
13173;SDS011;6652;48.802;9.190;2024-01-15T09:58:57;7.20;;;4.13;;
13173;SDS011;6652;48.802;9.190;2024-01-15T10:01:24;21.92;;;5.63;;
13173;SDS011;6652;48.802;9.190;2024-01-15T10:03:52;13.00;;;4.75;;
13173;SDS011;6652;48.802;9.190;2024-01-15T10:06:21;12.85;;;5.00;;
13173;SDS011;6652;48.802;9.190;2024-01-15T10:08:48;17.63;;;4.78;;
13173;SDS011;6652;48.802;9.190;2024-01-15T10:11:18;10.23;;;4.53;;
13173;SDS011;6652;48.802;9.190;2024-01-15T10:13:44;13.95;;;5.05;;
13173;SDS011;6652;48.802;9.190;2024-01-15T10:16:12;12.85;;;5.13;;
13173;SDS011;6652;48.802;9.190;2024-01-15T10:18:39;10.98;;;4.93;;
13173;SDS011;6652;48.802;9.190;2024-01-15T10:21:06;13.20;;;5.07;;
13173;SDS011;6652;48.802;9.190;2024-01-15T10:23:35;8.80;;;4.03;;
13173;SDS011;6652;48.802;9.190;2024-01-15T10:26:02;14.27;;;5.20;;
13173;SDS011;6652;48.802;9.190;2024-01-15T10:28:29;12.27;;;4.90;;
13173;SDS011;6652;48.802;9.190;2024-01-15T10:30:57;10.82;;;4.68;;
13173;SDS011;6652;48.802;9.190;2024-01-15T10:33:25;10.95;;;4.15;;
13173;SDS011;6652;48.802;9.190;2024-01-15T10:35:53;12.95;;;4.80;;
13173;SDS011;6652;48.802;9.190;2024-01-15T10:38:20;12.95;;;5.47;;
13173;SDS011;6652;48.802;9.190;2024-01-15T10:40:49;11.07;;;4.80;;
13173;SDS011;6652;48.802;9.190;2024-01-15T10:43:18;13.65;;;4.47;;
13173;SDS011;6652;48.802;9.190;2024-01-15T10:45:45;12.77;;;4.25;;
13173;SDS011;6652;48.802;9.190;2024-01-15T10:48:12;10.90;;;3.92;;
13173;SDS011;6652;48.802;9.190;2024-01-15T10:50:39;9.80;;;3.30;;
13173;SDS011;6652;48.802;9.190;2024-01-15T10:53:06;10.27;;;3.78;;
13173;SDS011;6652;48.802;9.190;2024-01-15T10:55:35;9.73;;;4.22;;
13173;SDS011;6652;48.802;9.190;2024-01-15T10:58:05;7.38;;;3.88;;
13173;SDS011;6652;48.802;9.190;2024-01-15T11:00:33;14.10;;;4.35;;
13173;SDS011;6652;48.802;9.190;2024-01-15T11:03:02;10.00;;;4.25;;
13173;SDS011;6652;48.802;9.190;2024-01-15T11:05:32;9.50;;;3.40;;
13173;SDS011;6652;48.802;9.190;2024-01-15T11:08:01;10.80;;;4.43;;
13173;SDS011;6652;48.802;9.190;2024-01-15T11:10:39;8.55;;;3.55;;
13173;SDS011;6652;48.802;9.190;2024-01-15T11:15:54;9.68;;;3.92;;
13173;SDS011;6652;48.802;9.190;2024-01-15T11:18:22;11.48;;;4.88;;
13173;SDS011;6652;48.802;9.190;2024-01-15T11:23:52;13.18;;;4.13;;
13173;SDS011;6652;48.802;9.190;2024-01-15T11:26:29;11.40;;;4.55;;
13173;SDS011;6652;48.802;9.190;2024-01-15T11:28:58;18.05;;;5.53;;
13173;SDS011;6652;48.802;9.190;2024-01-15T11:31:29;10.23;;;4.75;;
13173;SDS011;6652;48.802;9.190;2024-01-15T11:33:56;13.10;;;4.75;;
13173;SDS011;6652;48.802;9.190;2024-01-15T11:39:40;9.13;;;4.35;;
13173;SDS011;6652;48.802;9.190;2024-01-15T11:42:09;14.00;;;5.55;;
13173;SDS011;6652;48.802;9.190;2024-01-15T11:44:40;9.90;;;4.78;;
13173;SDS011;6652;48.802;9.190;2024-01-15T11:47:08;10.40;;;4.75;;
13173;SDS011;6652;48.802;9.190;2024-01-15T11:49:58;14.40;;;5.55;;
13173;SDS011;6652;48.802;9.190;2024-01-15T11:52:30;14.60;;;5.75;;
13173;SDS011;6652;48.802;9.190;2024-01-15T11:55:01;13.40;;;5.15;;
13173;SDS011;6652;48.802;9.190;2024-01-15T11:57:40;11.38;;;4.95;;
13173;SDS011;6652;48.802;9.190;2024-01-15T12:00:13;12.57;;;5.78;;
13173;SDS011;6652;48.802;9.190;2024-01-15T12:02:41;12.32;;;5.22;;
13173;SDS011;6652;48.802;9.190;2024-01-15T12:05:09;12.82;;;5.25;;
13173;SDS011;6652;48.802;9.190;2024-01-15T12:07:38;9.07;;;5.15;;
13173;SDS011;6652;48.802;9.190;2024-01-15T12:10:08;13.60;;;4.57;;
13173;SDS011;6652;48.802;9.190;2024-01-15T12:12:41;12.05;;;5.22;;
13173;SDS011;6652;48.802;9.190;2024-01-15T12:15:25;12.43;;;5.00;;
13173;SDS011;6652;48.802;9.190;2024-01-15T12:17:54;13.02;;;4.90;;
13173;SDS011;6652;48.802;9.190;2024-01-15T12:20:23;10.00;;;4.80;;
13173;SDS011;6652;48.802;9.190;2024-01-15T12:22:50;12.57;;;5.22;;
13173;SDS011;6652;48.802;9.190;2024-01-15T12:25:17;11.55;;;4.50;;
13173;SDS011;6652;48.802;9.190;2024-01-15T12:27:44;11.38;;;5.03;;
13173;SDS011;6652;48.802;9.190;2024-01-15T12:30:14;11.30;;;5.05;;
13173;SDS011;6652;48.802;9.190;2024-01-15T12:32:42;11.82;;;5.25;;
13173;SDS011;6652;48.802;9.190;2024-01-15T12:35:11;13.02;;;5.13;;
13173;SDS011;6652;48.802;9.190;2024-01-15T12:37:39;10.93;;;5.07;;
13173;SDS011;6652;48.802;9.190;2024-01-15T12:42:34;13.70;;;5.57;;
13173;SDS011;6652;48.802;9.190;2024-01-15T12:45:02;13.75;;;5.40;;
13173;SDS011;6652;48.802;9.190;2024-01-15T12:47:30;11.80;;;5.15;;
13173;SDS011;6652;48.802;9.190;2024-01-15T12:49:58;11.82;;;5.47;;
13173;SDS011;6652;48.802;9.190;2024-01-15T12:52:26;15.10;;;5.30;;
13173;SDS011;6652;48.802;9.190;2024-01-15T12:54:54;11.98;;;5.30;;
13173;SDS011;6652;48.802;9.190;2024-01-15T12:57:21;12.07;;;5.75;;
13173;SDS011;6652;48.802;9.190;2024-01-15T12:59:49;12.05;;;5.50;;
13173;SDS011;6652;48.802;9.190;2024-01-15T13:02:16;10.82;;;4.78;;
13173;SDS011;6652;48.802;9.190;2024-01-15T13:04:44;10.45;;;4.70;;
13173;SDS011;6652;48.802;9.190;2024-01-15T13:07:12;13.43;;;5.30;;
13173;SDS011;6652;48.802;9.190;2024-01-15T13:09:43;13.75;;;4.97;;
13173;SDS011;6652;48.802;9.190;2024-01-15T13:12:11;9.90;;;4.30;;
13173;SDS011;6652;48.802;9.190;2024-01-15T13:14:44;10.70;;;4.65;;
13173;SDS011;6652;48.802;9.190;2024-01-15T13:17:12;12.35;;;5.07;;
13173;SDS011;6652;48.802;9.190;2024-01-15T13:19:43;10.90;;;4.70;;
13173;SDS011;6652;48.802;9.190;2024-01-15T13:22:10;12.80;;;4.50;;
13173;SDS011;6652;48.802;9.190;2024-01-15T13:24:41;10.60;;;4.47;;
13173;SDS011;6652;48.802;9.190;2024-01-15T13:27:08;11.43;;;4.50;;
13173;SDS011;6652;48.802;9.190;2024-01-15T13:29:35;9.10;;;4.10;;
13173;SDS011;6652;48.802;9.190;2024-01-15T13:39:43;12.20;;;4.68;;
13173;SDS011;6652;48.802;9.190;2024-01-15T13:42:10;13.43;;;4.57;;
13173;SDS011;6652;48.802;9.190;2024-01-15T13:44:37;10.35;;;3.83;;
13173;SDS011;6652;48.802;9.190;2024-01-15T13:47:07;13.10;;;4.50;;
13173;SDS011;6652;48.802;9.190;2024-01-15T13:49:34;11.73;;;4.30;;
13173;SDS011;6652;48.802;9.190;2024-01-15T13:52:02;7.68;;;3.88;;
13173;SDS011;6652;48.802;9.190;2024-01-15T13:54:30;10.30;;;4.13;;
13173;SDS011;6652;48.802;9.190;2024-01-15T13:56:58;16.77;;;3.90;;
13173;SDS011;6652;48.802;9.190;2024-01-15T13:59:26;7.68;;;4.15;;
13173;SDS011;6652;48.802;9.190;2024-01-15T14:01:53;6.65;;;3.47;;
13173;SDS011;6652;48.802;9.190;2024-01-15T14:04:20;10.60;;;3.33;;
13173;SDS011;6652;48.802;9.190;2024-01-15T14:06:47;13.88;;;4.05;;
13173;SDS011;6652;48.802;9.190;2024-01-15T14:09:14;7.55;;;3.83;;
13173;SDS011;6652;48.802;9.190;2024-01-15T14:11:41;6.50;;;3.40;;
13173;SDS011;6652;48.802;9.190;2024-01-15T14:14:09;5.40;;;3.38;;
13173;SDS011;6652;48.802;9.190;2024-01-15T14:16:36;5.65;;;3.20;;
13173;SDS011;6652;48.802;9.190;2024-01-15T14:19:04;6.72;;;3.35;;
13173;SDS011;6652;48.802;9.190;2024-01-15T14:21:34;8.07;;;3.63;;
13173;SDS011;6652;48.802;9.190;2024-01-15T14:24:01;5.20;;;2.75;;
13173;SDS011;6652;48.802;9.190;2024-01-15T14:26:28;6.90;;;3.50;;
13173;SDS011;6652;48.802;9.190;2024-01-15T14:28:55;9.45;;;3.42;;
13173;SDS011;6652;48.802;9.190;2024-01-15T14:31:24;6.35;;;3.13;;
13173;SDS011;6652;48.802;9.190;2024-01-15T14:33:53;7.60;;;3.55;;
13173;SDS011;6652;48.802;9.190;2024-01-15T14:36:21;6.28;;;3.35;;
13173;SDS011;6652;48.802;9.190;2024-01-15T14:38:48;6.88;;;3.78;;
13173;SDS011;6652;48.802;9.190;2024-01-15T14:41:15;9.27;;;4.30;;
13173;SDS011;6652;48.802;9.190;2024-01-15T14:43:42;8.25;;;4.50;;
13173;SDS011;6652;48.802;9.190;2024-01-15T14:46:10;10.75;;;5.22;;
13173;SDS011;6652;48.802;9.190;2024-01-15T14:48:38;8.93;;;5.07;;
13173;SDS011;6652;48.802;9.190;2024-01-15T14:51:05;13.45;;;6.18;;
13173;SDS011;6652;48.802;9.190;2024-01-15T14:53:32;10.73;;;6.20;;
13173;SDS011;6652;48.802;9.190;2024-01-15T14:56:00;12.55;;;7.47;;
13173;SDS011;6652;48.802;9.190;2024-01-15T14:58:28;11.55;;;6.90;;
13173;SDS011;6652;48.802;9.190;2024-01-15T15:00:55;13.73;;;7.28;;
13173;SDS011;6652;48.802;9.190;2024-01-15T15:03:22;14.65;;;7.15;;
13173;SDS011;6652;48.802;9.190;2024-01-15T15:05:51;18.02;;;7.60;;
13173;SDS011;6652;48.802;9.190;2024-01-15T15:08:18;17.65;;;8.02;;
13173;SDS011;6652;48.802;9.190;2024-01-15T15:10:46;15.10;;;7.60;;